Weather History for Windom, MN

Change the Weather History Date:

Sunday, February 5, 2012

  Actual Average Record
Temperature  
Mean Temperature 28 °F -  
Max Temperature 33 °F 24 °F 55 °F (2005)
Min Temperature 24 °F 5 °F -28 °F (1979)
Degree Days  
Heating Degree Days 36    
Moisture  
Dew Point 26 °F    
Average Humidity 97    
Maximum Humidity 100    
Minimum Humidity 81    
Precipitation  
Precipitation 0.00 in - - ()
Sea Level Pressure  
Sea Level Pressure 30.32 in    
Wind  
Wind Speed 8 mph (West)    
Max Wind Speed 14 mph    
Max Gust Speed -    
Visibility 3 miles    
Events Fog    
Averages and records for this station are not official NWS values.
T = Trace of Precipitation, MM = Missing Value Source: NWS Daily Summary

Daily Weather History Graph

Daily Weather History Graph

Search for Another Location

Airport:

Trip Planner

Search our weather history database for the weather conditions in past years. The results will help you decide how hot, cold, wet, or windy it might be!

Date:

Astronomy

Feb. 05, 2012 Rise Set
Actual Time 7:33 AM CST 5:35 PM CST
Civil Twilight 7:03 AM CST 6:06 PM CST
Nautical Twilight 6:28 AM CST 6:40 PM CST
Astronomical Twilight 5:55 AM CST 7:14 PM CST
Moon 3:33 PM CST (2/5) 5:47 AM CST (2/5)
Length of Visible Light 11h 03m
Length of Day
10h 02m
Waxing Gibbous, 95% of the Moon is Illuminated
Feb 5
Waxing Gibbous
Feb 7
Full
Feb 14
Last Quarter
Feb 21
New
Feb 29
First Quarter

Hourly Weather History & Observations

Time (CST) Temp. Windchill Dew Point Humidity Pressure Visibility Wind Dir Wind Speed Gust Speed Precip Events Conditions
12:12 AM 26.6 °F 16.2 °F 26.6 °F 100% 30.33 in 5.0 mi NW 11.5 mph - N/A   Overcast
12:33 AM 26.6 °F 17.5 °F 26.6 °F 100% 30.33 in 4.0 mi NW 9.2 mph - N/A   Overcast
12:52 AM 26.6 °F 15.7 °F 26.6 °F 100% 30.33 in 4.0 mi NNW 12.7 mph - N/A   Overcast
1:12 AM 26.6 °F 16.2 °F 26.6 °F 100% 30.33 in 1.5 mi NW 11.5 mph - N/A   Overcast
1:33 AM 26.6 °F 15.2 °F 26.6 °F 100% 30.33 in 1.0 mi NW 13.8 mph - N/A   Overcast
1:52 AM 24.8 °F 12.9 °F 24.8 °F 100% 30.33 in 0.8 mi NW 13.8 mph - N/A   Overcast
2:12 AM 24.8 °F 13.4 °F 24.8 °F 100% 30.34 in 1.0 mi NNW 12.7 mph - N/A   Overcast
2:33 AM 24.8 °F 14.0 °F 24.8 °F 100% 30.34 in 1.2 mi NNW 11.5 mph - N/A   Overcast
2:52 AM 24.8 °F 15.3 °F 24.8 °F 100% 30.34 in 1.0 mi NW 9.2 mph - N/A   Overcast
3:12 AM 24.8 °F 14.6 °F 24.8 °F 100% 30.33 in 0.5 mi NW 10.4 mph - N/A Fog Light Freezing Fog
3:33 AM 24.8 °F 15.3 °F 24.8 °F 100% 30.33 in 0.5 mi NW 9.2 mph - N/A Fog Light Freezing Fog
3:52 AM 24.8 °F 16.1 °F 24.8 °F 100% 30.33 in 0.5 mi NNW 8.1 mph - N/A Fog Light Freezing Fog
4:13 AM 24.8 °F 16.9 °F 24.8 °F 100% 30.34 in 0.5 mi NW 6.9 mph - N/A Fog Light Freezing Fog
4:33 AM 24.8 °F 15.3 °F 24.8 °F 100% 30.34 in 0.8 mi NNW 9.2 mph - N/A   Overcast
4:52 AM 24.8 °F 17.9 °F 24.8 °F 100% 30.34 in 0.8 mi NW 5.8 mph - N/A   Overcast
5:13 AM 24.8 °F 16.9 °F 24.8 °F 100% 30.34 in 0.5 mi WNW 6.9 mph - N/A Fog Light Freezing Fog
5:33 AM 24.8 °F 16.1 °F 24.8 °F 100% 30.34 in 0.5 mi NW 8.1 mph - N/A Fog Light Freezing Fog
5:52 AM 24.8 °F 19.1 °F 24.8 °F 100% 30.33 in 0.8 mi NNW 4.6 mph - N/A   Overcast
6:13 AM 24.8 °F 17.9 °F 24.8 °F 100% 30.33 in 1.0 mi WNW 5.8 mph - N/A   Overcast
6:32 AM 24.8 °F 17.9 °F 24.8 °F 100% 30.33 in 0.8 mi WNW 5.8 mph - N/A   Overcast
6:52 AM 24.8 °F 16.9 °F 24.8 °F 100% 30.33 in 1.2 mi WNW 6.9 mph - N/A   Overcast
7:13 AM 24.8 °F 17.9 °F 24.8 °F 100% 30.34 in 1.2 mi NNW 5.8 mph - N/A   Overcast
7:32 AM 24.8 °F 16.9 °F 24.8 °F 100% 30.34 in 1.0 mi WNW 6.9 mph - N/A   Overcast
7:52 AM 24.8 °F 19.1 °F 24.8 °F 100% 30.34 in 1.8 mi WNW 4.6 mph - N/A   Overcast
8:13 AM 24.8 °F 16.9 °F 24.8 °F 100% 30.34 in 1.5 mi NW 6.9 mph - N/A   Overcast
8:32 AM 24.8 °F 17.9 °F 24.8 °F 100% 30.34 in 1.5 mi WNW 5.8 mph - N/A   Overcast
8:53 AM 24.8 °F 17.9 °F 24.8 °F 100% 30.34 in 0.8 mi West 5.8 mph - N/A   Overcast
9:13 AM 24.8 °F 17.9 °F 24.8 °F 100% 30.34 in 0.8 mi West 5.8 mph - N/A   Overcast
9:32 AM 24.8 °F 19.1 °F 24.8 °F 100% 30.34 in 1.0 mi West 4.6 mph - N/A   Overcast
9:53 AM 24.8 °F 19.1 °F 24.8 °F 100% 30.34 in 1.2 mi WNW 4.6 mph - N/A   Overcast
10:12 AM 24.8 °F 20.5 °F 24.8 °F 100% 30.35 in 1.5 mi WNW 3.5 mph - N/A   Overcast
10:32 AM 24.8 °F 19.1 °F 24.8 °F 100% 30.35 in 1.2 mi West 4.6 mph - N/A   Overcast
10:53 AM 24.8 °F 19.1 °F 24.8 °F 100% 30.35 in 1.8 mi West 4.6 mph - N/A   Overcast
11:13 AM 24.8 °F 19.1 °F 24.8 °F 100% 30.35 in 2.0 mi WSW 4.6 mph - N/A   Overcast
11:32 AM 24.8 °F 19.1 °F 24.8 °F 100% 30.34 in 2.5 mi West 4.6 mph - N/A   Overcast
11:53 AM 24.8 °F 16.9 °F 24.8 °F 100% 30.33 in 2.5 mi WSW 6.9 mph - N/A   Overcast
12:12 PM 24.8 °F 17.9 °F 24.8 °F 100% 30.33 in 3.0 mi West 5.8 mph - N/A   Overcast
12:32 PM 26.6 °F 22.6 °F 26.6 °F 100% 30.32 in 3.0 mi WSW 3.5 mph - N/A   Overcast
12:53 PM 26.6 °F 22.6 °F 26.6 °F 100% 30.31 in 4.0 mi West 3.5 mph - N/A   Overcast
1:12 PM 26.6 °F 22.6 °F 26.6 °F 100% 30.30 in 4.0 mi West 3.5 mph - N/A   Overcast
1:32 PM 26.6 °F 22.6 °F 26.6 °F 100% 30.30 in 5.0 mi WNW 3.5 mph - N/A   Overcast
1:53 PM 28.4 °F 23.3 °F 28.4 °F 100% 30.29 in 7.0 mi WSW 4.6 mph - N/A   Overcast
2:12 PM 28.4 °F 22.2 °F 28.4 °F 100% 30.28 in 7.0 mi WSW 5.8 mph - N/A   Overcast
2:32 PM 28.4 °F 23.3 °F 26.6 °F 93% 30.28 in 7.0 mi WSW 4.6 mph - N/A   Overcast
2:53 PM 32.0 °F 28.7 °F 28.4 °F 87% 30.27 in 7.0 mi SW 3.5 mph - N/A   Mostly Cloudy
3:12 PM 32.0 °F - 28.4 °F 87% 30.27 in 10.0 mi Calm Calm - N/A   Scattered Clouds
3:32 PM 33.8 °F 29.6 °F 28.4 °F 81% 30.26 in 10.0 mi SSW 4.6 mph - N/A   Clear
3:52 PM 33.8 °F 29.6 °F 28.4 °F 81% 30.26 in 10.0 mi SSW 4.6 mph - N/A   Clear
4:12 PM 33.8 °F 28.6 °F 28.4 °F 81% 30.26 in 10.0 mi SSW 5.8 mph - N/A   Clear
4:33 PM 33.8 °F 28.6 °F 28.4 °F 81% 30.26 in 10.0 mi SSW 5.8 mph - N/A   Clear
4:52 PM 33.8 °F 27.7 °F 28.4 °F 81% 30.26 in 10.0 mi South 6.9 mph - N/A   Clear
5:12 PM 32.0 °F 28.7 °F 28.4 °F 87% 30.26 in 10.0 mi South 3.5 mph - N/A   Clear
5:33 PM 30.2 °F 25.4 °F 28.4 °F 93% 30.26 in 7.0 mi South 4.6 mph - N/A   Clear
5:52 PM 30.2 °F 25.4 °F 28.4 °F 93% 30.25 in 7.0 mi South 4.6 mph - N/A   Clear
6:13 PM 28.4 °F 22.2 °F 28.4 °F 100% 30.25 in 5.0 mi South 5.8 mph - N/A   Clear
6:32 PM 28.4 °F 22.2 °F 28.4 °F 100% 30.25 in 4.0 mi South 5.8 mph - N/A   Clear
6:52 PM 28.4 °F 23.3 °F 26.6 °F 93% 30.24 in 4.0 mi South 4.6 mph - N/A   Clear
7:13 PM 26.6 °F - 26.6 °F 100% 30.24 in 4.0 mi Calm Calm - N/A   Clear
7:32 PM 26.6 °F 22.6 °F 26.6 °F 100% 30.23 in 5.0 mi South 3.5 mph - N/A   Clear
7:52 PM 26.6 °F 20.0 °F 26.6 °F 100% 30.23 in 7.0 mi SSW 5.8 mph - N/A   Clear
8:13 PM 28.4 °F 22.2 °F 26.6 °F 93% 30.23 in 7.0 mi SW 5.8 mph - N/A   Clear
8:32 PM 26.6 °F 20.0 °F 26.6 °F 100% 30.23 in 10.0 mi SW 5.8 mph - N/A   Clear
8:52 PM 26.6 °F 21.2 °F 26.6 °F 100% 30.22 in 10.0 mi SSW 4.6 mph - N/A   Clear
9:13 PM 26.6 °F 20.0 °F 26.6 °F 100% 30.22 in 10.0 mi SSW 5.8 mph - N/A   Clear
9:32 PM 26.6 °F 20.0 °F 26.6 °F 100% 30.22 in 10.0 mi SSW 5.8 mph - N/A   Clear
9:52 PM 26.6 °F 22.6 °F 24.8 °F 93% 30.22 in 10.0 mi SW 3.5 mph - N/A   Clear
10:13 PM 26.6 °F 20.0 °F 24.8 °F 93% 30.22 in 10.0 mi SW 5.8 mph - N/A   Clear
10:32 PM 24.8 °F 16.9 °F 24.8 °F 100% 30.21 in 10.0 mi SW 6.9 mph - N/A   Clear
10:53 PM 24.8 °F 17.9 °F 24.8 °F 100% 30.21 in 10.0 mi SW 5.8 mph - N/A   Clear
11:12 PM 24.8 °F 20.5 °F 24.8 °F 100% 30.20 in 10.0 mi WSW 3.5 mph - N/A   Clear
11:32 PM 24.8 °F 17.9 °F 23.0 °F 93% 30.20 in 10.0 mi SW 5.8 mph - N/A   Clear
11:53 PM 24.8 °F 16.9 °F 24.8 °F 100% 30.20 in 10.0 mi SW 6.9 mph - N/A   Clear